Time;durP1;ratioP1;P1;durP2;ratioP2;P2;SDS_P1;SDS_P2;PMS_P1;PMS_P2;Temp;Humidity;BMP_temperature;BMP_pressure;BME280_temperature;BME280_humidity;BME280_pressure;Samples;Min_cycle;Max_cycle;Signal;HPM_P1;HPM_P2
2023/04/02 00:01:33;;;;;;;14.40;6.37;;;3.10;99.90;;;;;;5183008;28;20442;-48
2023/04/02 00:04:13;;;;;;;6.43;5.00;;;3.10;99.90;;;;;;5204766;28;20441;-50
2023/04/02 00:06:43;;;;;;;5.50;4.40;;;3.10;99.90;;;;;;5198403;28;20842;-50
2023/04/02 00:09:14;;;;;;;7.50;4.23;;;3.10;99.90;;;;;;5207643;28;20458;-49
2023/04/02 00:11:48;;;;;;;4.20;4.00;;;3.10;99.90;;;;;;5205270;28;20235;-50
2023/04/02 00:14:29;;;;;;;10.43;4.07;;;3.00;99.90;;;;;;5207289;28;20782;-50
2023/04/02 00:17:03;;;;;;;5.23;4.40;;;3.00;99.90;;;;;;5198854;28;20786;-50
2023/04/02 00:19:56;;;;;;;7.83;3.33;;;3.00;99.90;;;;;;5209813;28;20549;-49
2023/04/02 00:22:30;;;;;;;7.13;4.37;;;3.00;99.90;;;;;;5200024;28;20524;-50
2023/04/02 00:25:11;;;;;;;7.53;3.83;;;3.00;99.90;;;;;;5208477;28;20456;-50
2023/04/02 00:27:42;;;;;;;4.17;3.87;;;3.00;99.90;;;;;;5208780;28;20445;-49
2023/04/02 00:30:14;;;;;;;8.63;4.70;;;2.90;99.90;;;;;;5207626;28;20438;-51
2023/04/02 00:32:45;;;;;;;4.37;3.70;;;2.90;99.90;;;;;;5206063;28;20918;-53
2023/04/02 00:35:27;;;;;;;5.13;4.20;;;3.00;99.90;;;;;;5184862;28;20446;-50
2023/04/02 00:37:59;;;;;;;11.30;4.00;;;3.00;99.90;;;;;;5205516;28;20472;-53
2023/04/02 00:40:30;;;;;;;5.00;3.93;;;2.90;99.90;;;;;;5204030;28;20790;-50
2023/04/02 00:43:02;;;;;;;4.03;3.73;;;2.90;99.90;;;;;;5203849;28;24121;-49
2023/04/02 00:45:37;;;;;;;6.27;4.13;;;2.90;99.90;;;;;;5201808;28;20462;-50
2023/04/02 00:48:40;;;;;;;7.13;4.20;;;2.90;99.90;;;;;;5201242;28;21109;-50
2023/04/02 00:51:50;;;;;;;8.03;3.77;;;2.90;99.90;;;;;;5200119;28;20530;-51
2023/04/02 00:54:24;;;;;;;3.83;3.43;;;2.90;99.90;;;;;;5213583;28;20488;-49
2023/04/02 00:56:57;;;;;;;5.17;3.80;;;2.90;99.90;;;;;;5209028;28;20430;-49
2023/04/02 01:00:06;;;;;;;3.70;3.50;;;2.90;99.90;;;;;;5211334;28;20598;-50
2023/04/02 01:02:39;;;;;;;3.63;3.43;;;2.90;99.90;;;;;;5218634;28;20957;-48
2023/04/02 01:05:16;;;;;;;4.13;3.73;;;2.80;99.90;;;;;;5202515;28;20455;-49
2023/04/02 01:07:49;;;;;;;3.70;3.50;;;2.80;99.90;;;;;;5201779;28;20433;-49
2023/04/02 01:10:41;;;;;;;3.87;3.47;;;2.90;99.90;;;;;;5199778;28;20427;-49
2023/04/02 01:13:18;;;;;;;5.70;3.57;;;2.80;99.90;;;;;;5199305;28;20434;-51
2023/04/02 01:16:00;;;;;;;3.17;2.87;;;2.80;99.90;;;;;;5202858;28;20442;-48
2023/04/02 01:19:12;;;;;;;4.30;3.83;;;2.80;99.90;;;;;;5202705;28;20487;-49
2023/04/02 01:21:52;;;;;;;3.97;3.60;;;2.80;99.90;;;;;;5210348;28;20437;-50
2023/04/02 01:24:28;;;;;;;5.83;3.40;;;2.80;99.90;;;;;;5198141;28;21174;-51
2023/04/02 01:27:01;;;;;;;5.07;4.10;;;2.80;99.90;;;;;;5208105;28;20445;-50
2023/04/02 01:29:47;;;;;;;7.43;3.50;;;2.90;99.90;;;;;;5203990;28;20508;-51
2023/04/02 01:32:20;;;;;;;4.80;3.70;;;2.80;99.90;;;;;;5198660;28;20446;-52
2023/04/02 01:34:51;;;;;;;7.33;3.97;;;2.80;99.90;;;;;;5200378;28;20450;-48
2023/04/02 01:37:22;;;;;;;3.43;3.20;;;2.80;99.90;;;;;;5206065;28;20493;-50
2023/04/02 01:40:08;;;;;;;6.13;4.10;;;2.90;99.90;;;;;;5218593;28;20868;-53
2023/04/02 01:43:12;;;;;;;3.73;3.43;;;2.80;99.90;;;;;;5202836;28;20203;-49
2023/04/02 01:45:43;;;;;;;5.97;3.40;;;2.90;99.90;;;;;;5195909;28;20466;-48
2023/04/02 01:48:18;;;;;;;4.13;3.90;;;2.90;99.90;;;;;;5206450;28;20481;-49
2023/04/02 01:50:53;;;;;;;5.17;3.33;;;2.90;99.90;;;;;;5208749;28;20493;-49
2023/04/02 01:53:27;;;;;;;4.20;3.30;;;2.90;99.90;;;;;;5204167;28;20462;-50
2023/04/02 01:56:00;;;;;;;4.43;3.10;;;2.90;99.90;;;;;;5212458;28;20850;-50
2023/04/02 01:58:32;;;;;;;3.20;2.90;;;2.90;99.90;;;;;;5200026;28;20859;-50
2023/04/02 02:01:22;;;;;;;6.13;3.00;;;2.80;99.90;;;;;;5201660;28;20545;-49
2023/04/02 02:03:54;;;;;;;2.63;2.33;;;2.80;99.90;;;;;;5202584;28;20435;-49
2023/04/02 02:06:24;;;;;;;5.47;2.43;;;2.80;99.90;;;;;;5199449;28;20478;-49
2023/04/02 02:09:02;;;;;;;2.47;2.37;;;2.80;99.90;;;;;;5205953;28;20462;-50
2023/04/02 02:11:35;;;;;;;4.43;2.40;;;2.80;99.90;;;;;;5201301;28;20183;-50
2023/04/02 02:14:15;;;;;;;4.63;2.40;;;2.80;99.90;;;;;;5188559;28;20912;-49
2023/04/02 02:16:46;;;;;;;3.93;2.33;;;2.90;99.90;;;;;;5206085;28;20453;-49
2023/04/02 02:19:36;;;;;;;6.83;2.10;;;2.90;99.90;;;;;;5197415;28;20941;-51
2023/04/02 02:22:33;;;;;;;4.27;2.33;;;2.80;99.90;;;;;;5215266;28;20462;-49
2023/04/02 02:25:20;;;;;;;2.17;2.03;;;2.80;99.90;;;;;;5196344;28;20908;-49
2023/04/02 02:28:00;;;;;;;1.97;1.80;;;2.80;99.90;;;;;;5200770;28;20457;-50
2023/04/02 02:30:40;;;;;;;4.63;1.90;;;2.70;99.90;;;;;;5201219;28;20951;-50
2023/04/02 02:33:22;;;;;;;5.13;2.40;;;2.80;99.90;;;;;;5200656;28;20465;-54
2023/04/02 02:35:56;;;;;;;2.20;1.90;;;2.70;99.90;;;;;;5202886;28;20444;-48
2023/04/02 02:38:33;;;;;;;3.63;2.00;;;2.80;99.90;;;;;;5203674;28;20985;-50
2023/04/02 02:41:32;;;;;;;2.20;2.00;;;2.70;99.90;;;;;;5207754;28;20445;-49
2023/04/02 02:44:09;;;;;;;2.33;2.13;;;2.70;99.90;;;;;;5209801;28;20446;-51
2023/04/02 02:46:50;;;;;;;2.47;1.87;;;2.70;99.90;;;;;;5200261;28;20472;-50
2023/04/02 02:49:27;;;;;;;3.40;1.87;;;2.70;99.90;;;;;;5204161;28;20501;-48
2023/04/02 02:52:12;;;;;;;5.20;2.30;;;2.70;99.90;;;;;;5203162;28;20493;-49
2023/04/02 02:54:50;;;;;;;2.70;1.93;;;2.70;99.90;;;;;;5196719;28;20485;-49
2023/04/02 02:57:26;;;;;;;3.20;2.00;;;2.70;99.90;;;;;;5205609;28;20909;-48
2023/04/02 02:59:59;;;;;;;5.00;1.57;;;2.70;99.90;;;;;;5202650;28;20962;-51
2023/04/02 03:02:29;;;;;;;3.07;2.20;;;2.70;99.90;;;;;;5202958;28;20480;-49
2023/04/02 03:05:03;;;;;;;1.60;1.50;;;2.70;99.90;;;;;;5195820;28;20497;-48
2023/04/02 03:07:36;;;;;;;4.73;1.87;;;2.70;99.90;;;;;;5205805;28;20183;-50
2023/04/02 03:10:28;;;;;;;4.33;1.80;;;2.80;99.90;;;;;;5202961;28;20434;-49
2023/04/02 03:13:04;;;;;;;1.90;1.57;;;2.70;99.90;;;;;;5199962;28;20935;-50
2023/04/02 03:15:48;;;;;;;1.87;1.77;;;2.80;99.90;;;;;;5198802;28;20950;-50
2023/04/02 03:18:26;;;;;;;1.63;1.53;;;2.80;99.90;;;;;;5209173;28;20810;-49
2023/04/02 03:21:16;;;;;;;2.23;1.87;;;2.80;99.90;;;;;;5204634;28;20437;-49
2023/04/02 03:23:55;;;;;;;2.10;2.00;;;2.80;99.90;;;;;;5206776;28;20438;-49
2023/04/02 03:26:52;;;;;;;3.23;2.40;;;2.80;99.90;;;;;;5203650;28;20466;-49
2023/04/02 03:29:30;;;;;;;2.03;1.90;;;2.80;99.90;;;;;;5200386;28;21350;-50
2023/04/02 03:32:16;;;;;;;4.87;1.93;;;2.70;99.90;;;;;;5207634;28;20430;-51
2023/04/02 03:34:52;;;;;;;4.80;2.07;;;2.80;99.90;;;;;;5198143;28;20426;-49
2023/04/02 03:37:38;;;;;;;3.20;1.53;;;2.70;99.90;;;;;;5205179;28;20524;-52
2023/04/02 03:40:36;;;;;;;3.67;2.13;;;2.80;99.90;;;;;;5199860;28;20449;-52
2023/04/02 03:43:13;;;;;;;6.67;1.97;;;2.80;99.90;;;;;;5206661;28;20445;-50
2023/04/02 03:45:48;;;;;;;5.07;2.27;;;2.80;99.90;;;;;;5198061;28;20878;-50
2023/04/02 03:48:42;;;;;;;1.97;1.80;;;2.80;99.90;;;;;;5205914;28;20498;-50
2023/04/02 03:51:36;;;;;;;2.40;2.27;;;2.80;99.90;;;;;;5196701;28;20442;-48
2023/04/02 03:54:12;;;;;;;3.10;2.27;;;2.80;99.90;;;;;;5204811;28;20918;-47
2023/04/02 03:56:46;;;;;;;2.40;2.30;;;2.80;99.90;;;;;;5201138;28;20446;-48
2023/04/02 03:59:24;;;;;;;8.63;2.40;;;2.80;99.90;;;;;;5202784;28;20465;-53
2023/04/02 04:02:18;;;;;;;2.93;2.07;;;2.90;99.90;;;;;;5193825;28;20423;-50
2023/04/02 04:04:49;;;;;;;4.73;2.37;;;2.80;99.90;;;;;;5199486;28;20458;-50
2023/04/02 04:07:51;;;;;;;2.20;2.10;;;2.90;99.90;;;;;;5180691;28;20436;-49
2023/04/02 04:10:24;;;;;;;4.93;2.70;;;2.80;99.90;;;;;;5188936;28;20435;-52
2023/04/02 04:13:04;;;;;;;4.20;1.87;;;2.80;99.90;;;;;;5196185;28;20435;-49
2023/04/02 04:15:55;;;;;;;2.87;2.03;;;2.90;99.90;;;;;;5201148;28;20434;-52
2023/04/02 04:18:39;;;;;;;3.77;2.40;;;2.90;99.90;;;;;;5194132;28;20470;-50
2023/04/02 04:21:58;;;;;;;1.87;1.77;;;2.90;99.90;;;;;;5196468;28;20473;-49
2023/04/02 04:24:24;;;;;;;3.97;2.37;;;2.90;99.90;;;;;;5203636;28;20438;-49
2023/04/02 04:27:08;;;;;;;1.90;1.80;;;2.90;99.90;;;;;;5205030;28;20471;-50
2023/04/02 04:30:04;;;;;;;3.43;1.93;;;2.90;99.90;;;;;;5196619;28;20450;-48
2023/04/02 04:32:37;;;;;;;4.17;1.90;;;2.90;99.90;;;;;;5196081;28;20442;-50
2023/04/02 04:35:26;;;;;;;1.60;1.50;;;2.90;99.90;;;;;;5207813;28;20765;-49
2023/04/02 04:38:06;;;;;;;2.73;1.57;;;2.90;99.90;;;;;;5220731;28;20499;-50
2023/04/02 04:40:44;;;;;;;2.97;1.90;;;3.00;99.90;;;;;;5201097;28;20854;-51
2023/04/02 04:43:25;;;;;;;4.83;1.93;;;2.90;99.90;;;;;;5208126;28;20445;-52
2023/04/02 04:46:03;;;;;;;8.33;1.93;;;2.90;99.90;;;;;;5207722;28;20492;-51
2023/04/02 04:48:49;;;;;;;5.30;2.20;;;3.00;99.90;;;;;;5201212;28;20450;-51
2023/04/02 04:51:32;;;;;;;1.63;1.53;;;2.90;99.90;;;;;;5218316;28;20458;-51
2023/04/02 04:54:03;;;;;;;2.07;1.90;;;3.00;99.90;;;;;;5206391;28;20524;-52
2023/04/02 04:56:33;;;;;;;2.73;2.10;;;2.90;99.90;;;;;;5203089;28;20929;-51
2023/04/02 04:59:22;;;;;;;1.97;1.83;;;3.00;99.90;;;;;;5202387;28;20199;-51
2023/04/02 05:02:02;;;;;;;2.50;2.10;;;2.90;99.90;;;;;;5197802;28;20183;-51
2023/04/02 05:04:39;;;;;;;3.67;2.23;;;2.90;99.90;;;;;;5200609;28;20450;-52
2023/04/02 05:07:17;;;;;;;2.80;2.03;;;3.00;99.90;;;;;;5200471;28;20470;-50
2023/04/02 05:10:07;;;;;;;9.33;2.63;;;3.00;99.90;;;;;;5206307;28;20457;-50
2023/04/02 05:13:19;;;;;;;5.70;2.00;;;3.00;99.90;;;;;;5207004;28;20938;-50
2023/04/02 05:15:59;;;;;;;3.50;1.87;;;3.10;99.90;;;;;;5188794;28;20620;-50
2023/04/02 05:18:33;;;;;;;3.43;2.33;;;3.10;99.90;;;;;;5208956;28;20453;-51
2023/04/02 05:21:25;;;;;;;8.40;2.27;;;3.00;99.90;;;;;;5203629;28;20430;-50
2023/04/02 05:24:24;;;;;;;7.63;2.10;;;3.10;99.90;;;;;;5199636;28;20919;-51
2023/04/02 05:27:01;;;;;;;1.87;1.77;;;3.10;99.90;;;;;;5202863;28;20473;-51
2023/04/02 05:29:37;;;;;;;5.70;2.00;;;3.10;99.90;;;;;;5202899;28;20453;-50
2023/04/02 05:32:15;;;;;;;5.97;2.30;;;3.10;99.90;;;;;;5191027;28;20430;-51
2023/04/02 05:34:52;;;;;;;5.40;1.80;;;3.10;99.90;;;;;;5198424;28;20443;-52
2023/04/02 05:37:28;;;;;;;1.93;1.73;;;3.20;99.90;;;;;;5199563;28;20430;-52
2023/04/02 05:40:12;;;;;;;1.57;1.57;;;3.20;99.90;;;;;;5202692;28;20466;-50
2023/04/02 05:42:47;;;;;;;2.93;1.60;;;3.50;99.90;;;;;;5202075;28;20426;-51
2023/04/02 05:45:32;;;;;;;3.63;2.00;;;3.30;99.90;;;;;;5199433;28;20457;-52
2023/04/02 05:48:15;;;;;;;1.53;1.40;;;3.30;99.90;;;;;;5210654;28;20803;-52
2023/04/02 05:50:53;;;;;;;3.33;2.00;;;3.30;99.90;;;;;;5198341;28;20431;-53
2023/04/02 05:53:46;;;;;;;2.40;1.90;;;3.30;99.90;;;;;;5203084;28;20453;-51
2023/04/02 05:56:30;;;;;;;2.83;2.23;;;3.30;99.90;;;;;;5200705;28;20439;-52
2023/04/02 05:59:12;;;;;;;1.33;1.23;;;3.30;99.90;;;;;;5201328;28;20807;-51
2023/04/02 06:01:49;;;;;;;1.90;1.70;;;3.30;99.90;;;;;;5201372;28;20501;-52
2023/04/02 06:04:30;;;;;;;8.00;1.73;;;3.30;99.90;;;;;;5216189;28;20449;-51
2023/04/02 06:07:14;;;;;;;5.80;2.00;;;3.40;99.90;;;;;;5211562;28;20454;-52
2023/04/02 06:09:48;;;;;;;2.20;1.47;;;3.50;99.90;;;;;;5202610;28;20438;-50
2023/04/02 06:12:38;;;;;;;3.53;1.20;;;3.60;99.90;;;;;;5221046;28;20439;-52
2023/04/02 06:15:13;;;;;;;1.37;1.27;;;3.70;99.90;;;;;;5198872;28;20447;-51
2023/04/02 06:18:00;;;;;;;1.77;1.60;;;3.80;99.90;;;;;;5199471;28;20453;-52
2023/04/02 06:20:31;;;;;;;3.57;1.33;;;3.90;99.90;;;;;;5197881;28;20468;-51
2023/04/02 06:23:13;;;;;;;3.00;1.30;;;4.30;99.90;;;;;;5201146;28;20496;-50
2023/04/02 06:25:50;;;;;;;4.67;1.27;;;4.50;99.90;;;;;;5201304;28;20532;-52
2023/04/02 06:29:05;;;;;;;4.43;2.40;;;5.10;99.90;;;;;;5200984;28;20463;-51
2023/04/02 06:31:49;;;;;;;3.00;1.53;;;5.10;99.90;;;;;;5202517;28;20433;-49
2023/04/02 06:34:22;;;;;;;1.20;1.10;;;5.30;99.90;;;;;;5196548;28;20449;-49
2023/04/02 06:36:59;;;;;;;2.50;1.40;;;5.30;99.90;;;;;;5199822;28;20430;-51
2023/04/02 06:39:30;;;;;;;5.10;1.17;;;5.70;99.90;;;;;;5201719;28;20837;-51
2023/04/02 06:42:03;;;;;;;4.27;1.17;;;6.90;99.90;;;;;;5185938;28;20460;-50
2023/04/02 06:44:37;;;;;;;2.57;1.30;;;7.50;99.90;;;;;;5196973;28;20459;-52
2023/04/02 06:47:32;;;;;;;2.40;1.33;;;7.60;99.90;;;;;;5194493;28;20634;-51
2023/04/02 06:50:27;;;;;;;2.27;1.50;;;8.60;97.60;;;;;;5198366;28;20948;-48
2023/04/02 06:53:05;;;;;;;7.33;1.10;;;8.90;92.50;;;;;;5194386;28;20433;-51
2023/04/02 06:55:50;;;;;;;2.00;1.10;;;10.80;75.90;;;;;;5201993;28;20441;-51
2023/04/02 06:58:21;;;;;;;4.50;1.10;;;12.50;60.40;;;;;;5206916;28;21010;-51
2023/04/02 07:00:52;;;;;;;2.80;1.30;;;11.70;58.10;;;;;;5195429;28;20438;-50
2023/04/02 07:03:32;;;;;;;1.90;1.20;;;12.10;56.20;;;;;;5194047;28;20247;-51
2023/04/02 07:06:03;;;;;;;2.00;1.40;;;11.80;54.40;;;;;;5194722;28;20223;-51
2023/04/02 07:08:34;;;;;;;2.00;0.87;;;11.10;55.20;;;;;;5194056;28;20493;-51
2023/04/02 07:11:04;;;;;;;2.20;1.10;;;12.00;55.20;;;;;;5194470;28;20184;-52
2023/04/02 07:13:35;;;;;;;3.50;1.17;;;12.10;51.30;;;;;;5198482;28;20181;-51
2023/04/02 07:16:17;;;;;;;1.13;1.03;;;10.00;54.90;;;;;;5195369;28;20632;-52
2023/04/02 07:18:48;;;;;;;0.63;0.63;;;8.10;62.90;;;;;;5193340;28;20222;-51
2023/04/02 07:21:19;;;;;;;0.97;0.97;;;7.50;74.00;;;;;;5197881;28;20860;-52
2023/04/02 07:23:50;;;;;;;4.23;1.23;;;8.00;74.80;;;;;;5199830;28;20441;-53
2023/04/02 07:26:24;;;;;;;1.30;1.20;;;8.00;76.10;;;;;;5195417;28;20474;-50
2023/04/02 07:28:55;;;;;;;3.33;1.30;;;7.50;77.90;;;;;;5197710;28;20208;-51
2023/04/02 07:31:27;;;;;;;1.80;0.90;;;7.00;86.60;;;;;;5196842;28;20537;-51
2023/04/02 07:33:59;;;;;;;1.43;1.23;;;8.30;75.80;;;;;;5201581;28;20431;-51
2023/04/02 07:36:30;;;;;;;4.23;1.43;;;10.10;64.10;;;;;;5204617;28;20418;-52
2023/04/02 07:39:02;;;;;;;1.90;0.90;;;10.20;57.10;;;;;;5197964;28;21101;-52
2023/04/02 07:41:48;;;;;;;1.13;1.03;;;8.60;60.50;;;;;;5199070;28;20186;-51
2023/04/02 07:44:19;;;;;;;1.07;0.97;;;7.00;70.60;;;;;;5202533;28;20441;-50
2023/04/02 07:46:50;;;;;;;3.07;1.00;;;6.20;85.70;;;;;;5199663;28;20477;-51
2023/04/02 07:49:21;;;;;;;4.10;0.90;;;5.80;92.70;;;;;;5196815;28;20205;-50
2023/04/02 07:51:52;;;;;;;4.57;1.33;;;5.60;95.30;;;;;;5194086;28;20180;-52
2023/04/02 07:54:22;;;;;;;0.70;0.70;;;5.60;97.40;;;;;;5195839;28;20213;-51
2023/04/02 07:56:53;;;;;;;7.67;1.40;;;5.60;98.30;;;;;;5195762;28;20875;-51
2023/04/02 07:59:24;;;;;;;2.80;1.20;;;5.60;98.80;;;;;;5199508;28;20222;-51
2023/04/02 08:01:54;;;;;;;3.40;1.60;;;5.60;99.00;;;;;;5195046;28;20280;-50
2023/04/02 08:04:25;;;;;;;1.53;0.93;;;5.60;98.70;;;;;;5202226;28;20248;-51
2023/04/02 08:06:56;;;;;;;1.13;1.10;;;5.50;98.70;;;;;;5197583;28;20211;-52
2023/04/02 08:09:26;;;;;;;3.73;1.50;;;5.40;99.60;;;;;;5199939;28;20295;-51
2023/04/02 08:11:57;;;;;;;1.60;1.03;;;5.30;99.30;;;;;;5204893;28;20204;-51
2023/04/02 08:14:28;;;;;;;0.93;0.90;;;5.30;99.30;;;;;;5203193;28;20178;-51
2023/04/02 08:16:58;;;;;;;1.10;0.97;;;5.20;99.60;;;;;;5204607;28;20189;-51
2023/04/02 08:19:29;;;;;;;2.97;1.20;;;5.20;98.80;;;;;;5204996;28;20649;-51
2023/04/02 08:22:00;;;;;;;3.70;1.43;;;5.20;99.90;;;;;;5203625;28;20185;-52
2023/04/02 08:24:30;;;;;;;1.67;1.57;;;5.20;99.40;;;;;;5199971;28;20271;-52
2023/04/02 08:27:01;;;;;;;1.77;1.67;;;5.20;99.70;;;;;;5194346;28;20208;-52
2023/04/02 08:29:32;;;;;;;1.17;1.07;;;5.40;99.80;;;;;;5196517;28;20192;-51
2023/04/02 08:32:03;;;;;;;2.00;1.47;;;5.50;99.00;;;;;;5205359;28;20199;-52
2023/04/02 08:34:33;;;;;;;3.63;1.50;;;5.40;98.50;;;;;;5207023;28;20558;-52
2023/04/02 08:37:04;;;;;;;1.90;1.50;;;5.70;98.90;;;;;;5204730;28;20741;-52
2023/04/02 08:39:34;;;;;;;3.57;1.70;;;5.90;97.50;;;;;;5199862;28;20226;-53
2023/04/02 08:42:10;;;;;;;6.23;1.33;;;5.90;96.70;;;;;;5205561;28;20185;-51
2023/04/02 08:45:05;;;;;;;5.60;1.30;;;6.10;97.10;;;;;;5188512;28;20266;-51
2023/04/02 08:47:39;;;;;;;1.63;1.53;;;6.10;98.00;;;;;;5198485;28;20816;-51
2023/04/02 08:50:21;;;;;;;7.40;1.33;;;6.00;97.70;;;;;;5196983;28;20475;-51
2023/04/02 08:52:52;;;;;;;1.73;1.37;;;5.80;97.20;;;;;;5202349;28;20435;-52
2023/04/02 08:55:46;;;;;;;1.10;1.10;;;5.60;98.10;;;;;;5202290;28;20453;-53
2023/04/02 08:58:37;;;;;;;4.13;1.60;;;5.40;98.00;;;;;;5197130;28;20208;-50
2023/04/02 09:01:26;;;;;;;1.67;1.60;;;5.60;99.10;;;;;;5202656;28;20454;-51
2023/04/02 09:03:58;;;;;;;4.13;1.50;;;5.80;99.20;;;;;;5196863;28;20570;-52
2023/04/02 09:06:29;;;;;;;5.33;1.40;;;5.80;99.50;;;;;;5206981;28;20467;-52
2023/04/02 09:09:00;;;;;;;4.97;1.47;;;5.60;98.90;;;;;;5201814;28;20475;-52
2023/04/02 09:11:37;;;;;;;2.10;1.23;;;5.50;99.30;;;;;;5204524;28;20447;-52
2023/04/02 09:14:37;;;;;;;1.77;1.60;;;5.40;98.00;;;;;;5220732;28;20184;-51
2023/04/02 09:17:19;;;;;;;2.33;1.40;;;5.20;98.90;;;;;;5195035;28;21122;-52
2023/04/02 09:20:00;;;;;;;2.73;2.23;;;5.20;99.90;;;;;;5199408;28;20486;-52
2023/04/02 09:22:33;;;;;;;3.60;1.67;;;5.30;99.90;;;;;;5204031;28;20455;-52
2023/04/02 09:25:10;;;;;;;3.23;1.30;;;5.50;99.50;;;;;;5201497;28;20471;-51
2023/04/02 09:27:41;;;;;;;1.07;1.00;;;5.70;98.40;;;;;;5199139;28;20437;-50
2023/04/02 09:30:31;;;;;;;2.10;1.30;;;5.70;97.00;;;;;;5201245;28;20830;-50
2023/04/02 09:33:06;;;;;;;3.80;1.63;;;5.60;97.10;;;;;;5199987;28;20180;-52
2023/04/02 09:35:56;;;;;;;2.10;1.17;;;5.50;97.00;;;;;;5199390;28;20795;-51
2023/04/02 09:38:30;;;;;;;2.20;1.70;;;5.50;96.80;;;;;;5203792;28;20471;-52
2023/04/02 09:41:06;;;;;;;4.30;0.67;;;5.50;96.10;;;;;;5201788;28;20470;-50
2023/04/02 09:43:37;;;;;;;7.73;1.07;;;5.70;95.60;;;;;;5200416;28;20470;-52
2023/04/02 09:46:21;;;;;;;2.60;1.23;;;5.90;93.10;;;;;;5187524;28;20519;-52
2023/04/02 09:48:53;;;;;;;4.70;1.20;;;6.10;90.60;;;;;;5193582;28;20457;-51
2023/04/02 09:51:30;;;;;;;1.37;1.17;;;6.50;89.00;;;;;;5194887;28;20845;-51
2023/04/02 09:54:01;;;;;;;3.47;1.43;;;6.40;85.90;;;;;;5199531;28;21028;-53
2023/04/02 09:56:34;;;;;;;1.80;1.27;;;6.50;85.90;;;;;;5193505;28;20447;-52
2023/04/02 09:59:16;;;;;;;1.50;0.77;;;6.70;83.30;;;;;;5199592;28;20196;-53
2023/04/02 10:01:59;;;;;;;7.30;1.10;;;6.70;81.60;;;;;;5202885;28;20425;-50
2023/04/02 10:04:36;;;;;;;3.57;1.03;;;6.50;86.20;;;;;;5200436;28;20541;-51
2023/04/02 10:07:10;;;;;;;3.23;1.13;;;6.40;87.00;;;;;;5200661;28;20470;-53
2023/04/02 10:09:41;;;;;;;1.53;0.77;;;6.40;85.00;;;;;;5201197;28;20797;-51
2023/04/02 10:12:14;;;;;;;3.43;1.27;;;6.40;88.70;;;;;;5204826;28;20448;-51
2023/04/02 10:14:48;;;;;;;3.43;1.27;;;6.70;87.20;;;;;;5203816;28;20762;-52
2023/04/02 10:17:29;;;;;;;4.80;1.40;;;7.10;82.50;;;;;;5198954;28;20513;-52
2023/04/02 10:20:10;;;;;;;1.53;1.13;;;7.50;80.70;;;;;;5203876;28;20514;-52
2023/04/02 10:22:41;;;;;;;2.27;0.87;;;7.30;77.00;;;;;;5197359;28;20434;-51
2023/04/02 10:25:18;;;;;;;10.73;1.83;;;7.00;79.80;;;;;;5202232;28;20461;-50
2023/04/02 10:28:10;;;;;;;2.50;1.20;;;7.00;81.40;;;;;;5200070;28;20437;-52
2023/04/02 10:30:58;;;;;;;4.47;1.50;;;7.00;80.80;;;;;;5203347;28;20484;-54
2023/04/02 10:33:35;;;;;;;1.87;1.67;;;7.00;78.20;;;;;;5199845;28;20970;-51
2023/04/02 10:36:22;;;;;;;2.00;1.20;;;7.00;80.10;;;;;;5204074;28;20445;-52
2023/04/02 10:39:04;;;;;;;2.77;0.97;;;7.10;80.30;;;;;;5200673;28;20477;-52
2023/04/02 10:41:42;;;;;;;3.93;1.17;;;7.20;83.70;;;;;;5215878;28;20442;-51
2023/04/02 10:44:28;;;;;;;2.10;1.50;;;7.20;80.40;;;;;;5203037;28;20480;-50
2023/04/02 10:47:25;;;;;;;7.53;1.83;;;7.10;79.50;;;;;;5194401;28;20466;-51
2023/04/02 10:50:05;;;;;;;3.10;2.07;;;6.90;79.80;;;;;;5202661;28;20495;-51
2023/04/02 10:52:47;;;;;;;4.00;1.20;;;6.80;84.10;;;;;;5195020;28;20459;-52
2023/04/02 10:55:22;;;;;;;1.73;1.30;;;7.00;81.60;;;;;;5199237;28;20470;-53
2023/04/02 10:57:58;;;;;;;1.73;1.33;;;7.20;82.70;;;;;;5202932;28;20479;-53
2023/04/02 11:00:35;;;;;;;2.43;1.30;;;7.50;79.90;;;;;;5201882;28;20433;-51
2023/04/02 11:03:13;;;;;;;2.77;1.00;;;7.60;77.50;;;;;;5199940;28;20442;-50
2023/04/02 11:05:51;;;;;;;5.27;1.17;;;7.50;78.50;;;;;;5201554;28;20569;-50
2023/04/02 11:08:24;;;;;;;1.57;1.10;;;7.60;78.30;;;;;;5205775;28;20456;-48
2023/04/02 11:11:20;;;;;;;5.73;1.57;;;7.60;77.90;;;;;;5205530;28;21002;-50
2023/04/02 11:14:12;;;;;;;3.10;1.40;;;7.60;79.40;;;;;;5202682;28;20919;-49
2023/04/02 11:16:43;;;;;;;5.73;1.47;;;7.80;77.10;;;;;;5200323;28;20528;-49
2023/04/02 11:19:13;;;;;;;1.93;1.50;;;7.70;72.90;;;;;;5203097;28;20857;-52
2023/04/02 11:22:16;;;;;;;8.20;1.73;;;7.70;73.50;;;;;;5204004;28;20559;-50
2023/04/02 11:24:53;;;;;;;4.43;1.57;;;7.50;74.80;;;;;;5203765;28;20214;-49
2023/04/02 11:27:29;;;;;;;2.00;1.53;;;7.40;73.90;;;;;;5204903;28;20441;-53
2023/04/02 11:30:12;;;;;;;1.80;1.20;;;7.50;73.80;;;;;;5200464;28;20472;-50
2023/04/02 11:32:48;;;;;;;2.63;1.50;;;7.30;73.80;;;;;;5220599;28;20476;-48
2023/04/02 11:35:29;;;;;;;3.10;1.40;;;7.00;77.70;;;;;;5218989;28;20452;-50
2023/04/02 11:38:22;;;;;;;1.83;1.67;;;6.70;82.70;;;;;;5205895;28;20481;-49
2023/04/02 11:40:55;;;;;;;1.30;1.13;;;6.70;81.20;;;;;;5204890;28;20437;-51
2023/04/02 11:43:31;;;;;;;5.80;1.63;;;6.80;80.00;;;;;;5209618;28;20468;-51
2023/04/02 11:46:25;;;;;;;1.67;1.57;;;7.10;80.80;;;;;;5209894;28;20475;-48
2023/04/02 11:49:35;;;;;;;9.47;1.83;;;7.50;76.40;;;;;;5210786;28;20547;-52
2023/04/02 11:52:20;;;;;;;2.60;1.40;;;7.70;74.50;;;;;;5208806;28;20970;-50
2023/04/02 11:55:26;;;;;;;5.70;1.33;;;8.00;75.00;;;;;;5208845;28;20806;-50
2023/04/02 11:58:19;;;;;;;4.77;1.70;;;8.40;71.60;;;;;;5187043;28;20454;-49
2023/04/02 12:01:13;;;;;;;1.10;1.00;;;8.70;68.40;;;;;;5207134;28;20446;-50
2023/04/02 12:04:09;;;;;;;4.23;1.70;;;8.90;67.80;;;;;;5205845;28;20449;-50
2023/04/02 12:06:45;;;;;;;2.07;1.30;;;8.80;65.80;;;;;;5209720;28;20470;-49
2023/04/02 12:09:26;;;;;;;3.77;1.10;;;8.90;65.40;;;;;;5208592;28;20457;-50
2023/04/02 12:12:14;;;;;;;8.60;1.33;;;8.70;64.90;;;;;;5211361;28;20465;-51
2023/04/02 12:14:47;;;;;;;4.10;1.30;;;8.70;65.00;;;;;;5211253;28;20437;-49
2023/04/02 12:17:27;;;;;;;1.50;1.40;;;8.70;63.60;;;;;;5207193;28;20484;-49
2023/04/02 12:20:09;;;;;;;3.63;1.63;;;8.40;62.80;;;;;;5209474;28;20485;-52
2023/04/02 12:22:47;;;;;;;4.87;1.57;;;8.10;64.10;;;;;;5210517;28;20889;-52
2023/04/02 12:25:39;;;;;;;3.23;1.20;;;8.00;65.10;;;;;;5228836;28;20458;-49
2023/04/02 12:28:10;;;;;;;4.30;1.37;;;8.00;63.90;;;;;;5208776;28;20466;-50
2023/04/02 12:30:41;;;;;;;3.83;2.07;;;8.20;63.20;;;;;;5210498;28;20441;-52
2023/04/02 12:33:20;;;;;;;3.27;1.40;;;8.20;63.80;;;;;;5204297;28;20192;-51
2023/04/02 12:35:58;;;;;;;6.73;1.50;;;8.30;63.10;;;;;;5206057;28;20215;-49
2023/04/02 12:38:44;;;;;;;2.07;0.97;;;8.40;62.70;;;;;;5188341;28;20535;-50
2023/04/02 12:41:30;;;;;;;5.03;1.70;;;8.50;62.70;;;;;;5192741;28;20534;-49
2023/04/02 12:44:12;;;;;;;6.10;0.77;;;8.40;61.50;;;;;;5191585;28;20502;-49
2023/04/02 12:46:44;;;;;;;2.87;1.20;;;8.20;62.10;;;;;;5202529;28;20471;-51
2023/04/02 12:49:33;;;;;;;2.90;1.43;;;8.10;61.60;;;;;;5201750;28;20565;-50
2023/04/02 12:52:10;;;;;;;1.00;1.00;;;8.00;62.70;;;;;;5204087;28;20430;-50
2023/04/02 12:54:47;;;;;;;0.87;0.87;;;7.80;62.00;;;;;;5206981;28;20428;-50
2023/04/02 12:57:21;;;;;;;6.43;1.13;;;7.70;62.10;;;;;;5209769;28;20456;-49
2023/04/02 12:59:56;;;;;;;1.13;1.03;;;7.90;60.80;;;;;;5209871;28;20453;-50
2023/04/02 13:02:30;;;;;;;1.07;1.03;;;8.40;59.90;;;;;;5205026;28;20434;-50
2023/04/02 13:05:01;;;;;;;2.83;1.20;;;8.60;58.70;;;;;;5209768;28;20422;-50
2023/04/02 13:07:32;;;;;;;1.30;1.20;;;8.70;58.90;;;;;;5207444;28;20915;-50
2023/04/02 13:10:20;;;;;;;1.20;0.73;;;8.50;59.20;;;;;;5207980;28;20215;-50
2023/04/02 13:12:59;;;;;;;5.50;1.07;;;8.60;60.90;;;;;;5202198;28;20423;-49
2023/04/02 13:15:33;;;;;;;3.17;1.40;;;8.70;61.00;;;;;;5203218;28;20535;-51
2023/04/02 13:18:13;;;;;;;2.10;1.20;;;8.80;61.70;;;;;;5191417;28;20540;-50
2023/04/02 13:20:58;;;;;;;6.10;1.50;;;8.90;60.40;;;;;;5202970;28;20917;-51
2023/04/02 13:23:29;;;;;;;1.73;0.80;;;8.70;59.90;;;;;;5205203;28;21030;-49
2023/04/02 13:26:09;;;;;;;1.07;0.70;;;8.60;59.80;;;;;;5206509;28;20482;-51
2023/04/02 13:28:39;;;;;;;3.00;1.07;;;8.40;57.80;;;;;;5205621;28;20632;-49
2023/04/02 13:31:15;;;;;;;1.73;1.40;;;8.60;57.70;;;;;;5206900;28;20545;-50
2023/04/02 13:33:46;;;;;;;1.13;0.93;;;8.80;56.30;;;;;;5206360;28;20536;-51
2023/04/02 13:36:16;;;;;;;2.10;1.17;;;9.00;56.50;;;;;;5204254;28;20422;-52
2023/04/02 13:38:47;;;;;;;5.00;0.90;;;9.30;56.20;;;;;;5205071;28;20273;-51
2023/04/02 13:41:26;;;;;;;1.37;1.00;;;9.50;56.40;;;;;;5205724;28;20187;-51
2023/04/02 13:43:59;;;;;;;2.70;0.90;;;9.30;56.00;;;;;;5206666;28;20234;-51
2023/04/02 13:46:32;;;;;;;1.13;1.03;;;9.00;56.50;;;;;;5204520;28;20520;-50
2023/04/02 13:49:03;;;;;;;1.63;0.93;;;8.70;57.50;;;;;;5207577;28;20954;-51
2023/04/02 13:51:48;;;;;;;3.03;0.90;;;8.50;58.20;;;;;;5204236;28;20433;-49
2023/04/02 13:54:36;;;;;;;3.33;1.07;;;8.60;58.50;;;;;;5190412;28;20188;-54
2023/04/02 13:57:07;;;;;;;2.00;1.30;;;8.80;58.40;;;;;;5208838;28;20519;-50
2023/04/02 13:59:37;;;;;;;2.73;1.00;;;8.90;57.90;;;;;;5209192;28;21076;-51
2023/04/02 14:02:22;;;;;;;2.70;1.00;;;8.80;57.20;;;;;;5209557;28;20454;-52